Time;durP1;ratioP1;P1;durP2;ratioP2;P2;SDS_P1;SDS_P2;PMS_P1;PMS_P2;Temp;Humidity;BMP_temperature;BMP_pressure;BME280_temperature;BME280_humidity;BME280_pressure;Samples;Min_cycle;Max_cycle;Signal;HPM_P1;HPM_P2
2023/04/05 00:00:27;;;;;;;7.37;3.23;;;6.00;59.00;;;;;;5014547;28;20026;-79
2023/04/05 00:02:54;;;;;;;8.23;3.50;;;6.00;59.60;;;;;;5013408;28;20030;-80
2023/04/05 00:05:28;;;;;;;6.40;2.87;;;5.90;59.00;;;;;;5014082;28;20570;-80
2023/04/05 00:07:57;;;;;;;5.95;3.00;;;5.90;59.10;;;;;;5014057;28;20022;-79
2023/04/05 00:10:22;;;;;;;7.97;2.70;;;5.90;59.10;;;;;;5030296;28;20432;-80
2023/04/05 00:12:49;;;;;;;6.40;3.03;;;5.80;59.10;;;;;;5029836;28;20087;-79
2023/04/05 00:15:15;;;;;;;7.30;3.20;;;5.80;59.20;;;;;;5014072;28;20492;-79
2023/04/05 00:17:42;;;;;;;8.63;3.87;;;5.70;59.20;;;;;;5013792;28;20034;-79
2023/04/05 00:20:11;;;;;;;8.13;3.20;;;5.70;59.30;;;;;;5013755;28;20488;-79
2023/04/05 00:22:37;;;;;;;8.57;3.30;;;5.70;59.50;;;;;;5013620;28;20045;-79
2023/04/05 00:25:04;;;;;;;10.30;2.83;;;5.60;59.70;;;;;;5013489;28;20030;-79
2023/04/05 00:27:30;;;;;;;6.40;3.13;;;5.60;60.00;;;;;;5013384;28;20470;-79
2023/04/05 00:29:55;;;;;;;7.03;3.27;;;5.50;60.30;;;;;;5013650;28;20029;-79
2023/04/05 00:32:21;;;;;;;9.17;3.63;;;5.50;60.30;;;;;;5012958;28;20117;-80
2023/04/05 00:34:47;;;;;;;7.80;3.40;;;5.40;60.60;;;;;;5029507;28;20076;-78
2023/04/05 00:37:12;;;;;;;11.03;3.53;;;5.40;60.80;;;;;;5029818;28;20025;-78
2023/04/05 00:39:38;;;;;;;7.00;3.00;;;5.30;61.00;;;;;;5014186;28;20454;-80
2023/04/05 00:42:10;;;;;;;8.47;3.20;;;5.30;61.20;;;;;;5029555;28;20072;-78
2023/04/05 00:44:36;;;;;;;7.83;3.30;;;5.20;61.40;;;;;;5012982;28;20056;-80
2023/04/05 00:47:03;;;;;;;7.03;3.10;;;5.10;61.50;;;;;;5029526;28;20077;-80
2023/04/05 00:49:31;;;;;;;6.37;3.00;;;5.10;61.70;;;;;;5029297;28;20137;-78
2023/04/05 00:51:58;;;;;;;9.97;3.60;;;5.00;61.90;;;;;;5013975;28;20054;-78
2023/04/05 00:54:25;;;;;;;6.77;3.13;;;5.00;62.10;;;;;;5029152;28;20026;-81
2023/04/05 00:56:54;;;;;;;7.50;3.67;;;5.00;62.30;;;;;;5029365;28;20026;-80
2023/04/05 00:59:20;;;;;;;6.20;2.77;;;4.90;62.30;;;;;;5013214;28;20029;-80
2023/04/05 01:01:53;;;;;;;9.37;3.60;;;4.90;62.30;;;;;;5028498;28;20394;-80
2023/04/05 01:04:24;;;;;;;8.10;2.67;;;4.90;62.30;;;;;;5029145;28;20125;-80
2023/04/05 01:06:59;;;;;;;7.97;2.87;;;4.80;62.50;;;;;;5029060;28;20309;-79
2023/04/05 01:09:37;;;;;;;7.03;3.10;;;4.80;62.60;;;;;;5029465;28;20030;-80
2023/04/05 01:12:06;;;;;;;8.50;3.07;;;4.80;63.00;;;;;;5013818;28;20041;-80
2023/04/05 01:14:41;;;;;;;7.97;2.80;;;4.70;63.00;;;;;;5013931;28;20026;-79
2023/04/05 01:17:08;;;;;;;7.80;3.67;;;4.60;63.20;;;;;;5029262;28;20034;-80
2023/04/05 01:19:40;;;;;;;7.97;3.67;;;4.60;63.50;;;;;;5012449;28;20041;-80
2023/04/05 01:22:15;;;;;;;7.63;3.63;;;4.60;63.70;;;;;;5013765;28;20030;-79
2023/04/05 01:25:02;;;;;;;7.27;3.53;;;4.60;63.70;;;;;;5013375;28;20378;-79
2023/04/05 01:27:46;;;;;;;8.33;3.53;;;4.50;63.70;;;;;;5028883;28;20026;-80
2023/04/05 01:30:19;;;;;;;7.72;3.33;;;4.50;63.80;;;;;;5028922;28;20470;-80
2023/04/05 01:32:54;;;;;;;7.80;3.40;;;4.50;64.10;;;;;;5013271;28;20034;-80
2023/04/05 01:35:43;;;;;;;6.87;3.30;;;4.40;63.90;;;;;;5029108;28;20382;-80
2023/04/05 01:38:14;;;;;;;8.60;3.83;;;4.40;64.10;;;;;;5013621;28;20049;-80
2023/04/05 01:40:40;;;;;;;7.73;3.70;;;4.30;64.10;;;;;;5028806;28;20018;-79
2023/04/05 01:43:13;;;;;;;6.80;3.30;;;4.30;64.30;;;;;;5012659;28;20172;-80
2023/04/05 01:45:40;;;;;;;7.35;3.42;;;4.30;64.60;;;;;;5012301;28;20072;-80
2023/04/05 01:48:06;;;;;;;7.47;3.13;;;4.20;64.70;;;;;;5011836;28;20184;-80
2023/04/05 01:50:32;;;;;;;7.40;3.80;;;4.10;64.90;;;;;;4995970;28;20120;-79
2023/04/05 01:52:57;;;;;;;9.03;3.80;;;4.20;65.20;;;;;;5028753;28;20034;-79
2023/04/05 01:55:23;;;;;;;8.30;3.33;;;4.20;65.10;;;;;;5012063;28;20463;-79
2023/04/05 01:57:49;;;;;;;7.47;3.30;;;4.10;65.00;;;;;;5012149;28;20033;-80
2023/04/05 02:00:15;;;;;;;8.03;3.00;;;4.10;65.00;;;;;;5011966;28;20022;-79
2023/04/05 02:02:40;;;;;;;8.57;3.67;;;4.10;65.00;;;;;;5011734;28;20028;-80
2023/04/05 02:05:06;;;;;;;10.97;3.60;;;4.10;65.00;;;;;;5012058;28;20117;-79
2023/04/05 02:07:32;;;;;;;9.47;2.83;;;4.10;65.00;;;;;;5011787;28;20474;-79
2023/04/05 02:09:57;;;;;;;6.83;3.53;;;4.10;65.00;;;;;;5012092;28;20030;-79
2023/04/05 02:12:23;;;;;;;9.40;3.47;;;4.00;65.00;;;;;;5011851;28;20041;-79
2023/04/05 02:14:50;;;;;;;11.90;3.80;;;4.00;65.30;;;;;;5015263;28;20470;-79
2023/04/05 02:17:16;;;;;;;10.87;3.53;;;4.00;65.60;;;;;;5016325;28;20044;-79
2023/04/05 02:19:45;;;;;;;9.77;3.60;;;4.00;65.50;;;;;;5015720;28;20029;-79
2023/04/05 02:22:11;;;;;;;7.23;3.23;;;3.90;65.70;;;;;;5016311;28;20033;-79
2023/04/05 02:24:37;;;;;;;8.07;3.53;;;3.90;66.00;;;;;;5032244;28;20513;-79
2023/04/05 02:27:03;;;;;;;8.13;4.00;;;3.80;66.20;;;;;;5032259;28;20022;-80
2023/04/05 02:29:30;;;;;;;9.13;3.77;;;3.80;66.80;;;;;;5015500;28;20450;-79
2023/04/05 02:31:56;;;;;;;8.53;3.70;;;3.80;66.70;;;;;;5015294;28;20042;-79
2023/04/05 02:34:22;;;;;;;7.00;3.63;;;3.70;66.90;;;;;;5015094;28;20026;-80
2023/04/05 02:36:51;;;;;;;8.37;3.47;;;3.70;66.90;;;;;;4999567;28;20030;-79
2023/04/05 02:39:17;;;;;;;8.67;3.90;;;3.70;67.00;;;;;;5031872;28;20370;-78
2023/04/05 02:41:43;;;;;;;7.83;3.47;;;3.70;67.00;;;;;;5015568;28;20026;-79
2023/04/05 02:44:08;;;;;;;8.77;3.60;;;3.70;67.00;;;;;;5031775;28;20393;-79
2023/04/05 02:46:34;;;;;;;8.93;3.93;;;3.70;67.10;;;;;;5015484;28;20482;-79
2023/04/05 02:49:00;;;;;;;8.70;3.70;;;3.60;67.20;;;;;;5031770;28;20050;-78
2023/04/05 02:51:25;;;;;;;6.83;3.20;;;3.60;67.20;;;;;;5031708;28;20041;-79
2023/04/05 02:53:51;;;;;;;8.13;3.43;;;3.60;67.40;;;;;;5016660;28;20105;-79
2023/04/05 02:56:17;;;;;;;8.30;3.67;;;3.50;67.50;;;;;;5015683;28;20084;-79
2023/04/05 02:58:44;;;;;;;10.57;4.10;;;3.50;67.60;;;;;;5016420;28;20026;-78
2023/04/05 03:01:10;;;;;;;10.33;3.80;;;3.50;67.80;;;;;;5030974;28;20025;-79
2023/04/05 03:03:36;;;;;;;7.67;3.63;;;3.40;68.00;;;;;;5016321;28;20022;-78
2023/04/05 03:06:12;;;;;;;7.53;3.70;;;3.50;68.10;;;;;;5015042;28;20064;-80
2023/04/05 03:08:42;;;;;;;6.53;3.27;;;3.40;68.40;;;;;;5015305;28;20033;-79
2023/04/05 03:11:09;;;;;;;8.17;3.93;;;3.50;68.60;;;;;;5031252;28;20040;-78
2023/04/05 03:13:35;;;;;;;6.63;3.67;;;3.40;68.70;;;;;;5031083;28;20088;-78
2023/04/05 03:16:01;;;;;;;8.13;4.30;;;3.40;68.60;;;;;;5031237;28;20017;-78
2023/04/05 03:18:28;;;;;;;11.17;3.70;;;3.40;68.70;;;;;;5014902;28;20080;-78
2023/04/05 03:20:57;;;;;;;9.70;4.47;;;3.40;68.80;;;;;;5031525;28;20022;-78
2023/04/05 03:23:28;;;;;;;11.33;3.23;;;3.40;68.90;;;;;;5015801;28;20022;-79
2023/04/05 03:26:00;;;;;;;9.27;4.10;;;3.40;68.80;;;;;;5030154;28;20125;-79
2023/04/05 03:28:27;;;;;;;9.73;4.37;;;3.40;68.80;;;;;;5030958;28;20054;-78
2023/04/05 03:30:53;;;;;;;7.80;3.07;;;3.40;68.70;;;;;;5030902;28;20030;-79
2023/04/05 03:33:19;;;;;;;10.40;3.97;;;3.30;68.70;;;;;;5030817;28;20041;-79
2023/04/05 03:35:46;;;;;;;7.40;3.50;;;3.30;68.70;;;;;;5031115;28;20462;-79
2023/04/05 03:38:12;;;;;;;8.73;3.90;;;3.30;68.70;;;;;;5031228;28;20076;-80
2023/04/05 03:40:38;;;;;;;10.40;3.77;;;3.30;68.90;;;;;;5030859;28;20025;-79
2023/04/05 03:43:04;;;;;;;8.30;3.83;;;3.30;68.90;;;;;;5013961;28;20033;-79
2023/04/05 03:45:29;;;;;;;11.20;4.87;;;3.30;68.90;;;;;;5030858;28;20071;-78
2023/04/05 03:47:56;;;;;;;9.37;3.83;;;3.30;68.90;;;;;;5014054;28;20136;-78
2023/04/05 03:50:22;;;;;;;8.57;3.90;;;3.30;68.80;;;;;;5015531;28;20140;-78
2023/04/05 03:52:48;;;;;;;12.30;4.23;;;3.20;68.80;;;;;;5014239;28;20121;-78
2023/04/05 03:55:15;;;;;;;10.53;4.00;;;3.20;68.90;;;;;;5030790;28;20373;-78
2023/04/05 03:57:41;;;;;;;9.30;3.80;;;3.20;69.00;;;;;;5030063;28;20026;-80
2023/04/05 04:00:14;;;;;;;12.97;4.93;;;3.30;69.00;;;;;;5014308;28;20032;-80
2023/04/05 04:02:44;;;;;;;8.50;3.70;;;3.20;68.90;;;;;;5014595;28;20449;-80
2023/04/05 04:05:14;;;;;;;9.67;3.93;;;3.20;68.90;;;;;;5015154;28;20026;-80
2023/04/05 04:07:41;;;;;;;8.30;3.97;;;3.20;68.90;;;;;;5015260;28;20032;-79
2023/04/05 04:10:09;;;;;;;9.87;3.73;;;3.20;68.90;;;;;;5030299;28;20061;-80
2023/04/05 04:12:34;;;;;;;9.23;3.80;;;3.20;68.90;;;;;;5013957;28;20034;-79
2023/04/05 04:15:00;;;;;;;11.03;4.00;;;3.20;68.90;;;;;;5013493;28;20030;-80
2023/04/05 04:17:31;;;;;;;10.43;4.20;;;3.20;69.00;;;;;;5013568;28;20025;-80
2023/04/05 04:19:57;;;;;;;8.83;4.23;;;3.10;69.00;;;;;;5013935;28;20083;-79
2023/04/05 04:22:32;;;;;;;10.13;4.57;;;3.10;69.10;;;;;;5014110;28;20066;-80
2023/04/05 04:25:03;;;;;;;11.37;4.90;;;3.10;69.20;;;;;;5014646;28;20123;-80
2023/04/05 04:27:30;;;;;;;10.13;4.23;;;3.10;69.20;;;;;;5027403;28;20029;-79
2023/04/05 04:30:03;;;;;;;15.57;4.70;;;3.10;69.20;;;;;;5021986;28;20501;-79
2023/04/05 04:35:17;;;;;;;9.63;4.47;;;3.10;69.60;;;;;;5030820;28;20527;-80
2023/04/05 04:37:46;;;;;;;9.97;4.53;;;3.10;69.40;;;;;;5015460;28;20037;-79
2023/04/05 04:40:18;;;;;;;11.13;5.50;;;3.10;69.40;;;;;;5032540;28;20057;-79
2023/04/05 04:42:47;;;;;;;9.83;4.47;;;3.10;69.50;;;;;;5016878;28;20021;-79
2023/04/05 04:45:18;;;;;;;9.30;4.70;;;3.10;69.50;;;;;;5033162;28;20030;-79
2023/04/05 04:47:46;;;;;;;11.67;5.17;;;3.10;69.60;;;;;;5032286;28;20049;-79
2023/04/05 04:50:12;;;;;;;9.33;4.53;;;3.00;69.70;;;;;;5032471;28;20041;-78
2023/04/05 04:52:39;;;;;;;11.47;4.60;;;3.00;69.80;;;;;;5033014;28;20038;-79
2023/04/05 04:55:13;;;;;;;9.20;4.60;;;3.00;69.90;;;;;;5034391;28;20109;-79
2023/04/05 04:57:40;;;;;;;10.80;4.90;;;3.00;70.00;;;;;;5016555;28;20465;-79
2023/04/05 05:00:11;;;;;;;23.03;7.87;;;3.00;70.70;;;;;;5032993;28;20029;-80
2023/04/05 05:02:37;;;;;;;30.50;12.00;;;2.90;70.10;;;;;;5032349;28;20022;-79
2023/04/05 05:05:03;;;;;;;45.50;14.73;;;2.90;70.20;;;;;;5016311;28;20466;-81
2023/04/05 05:07:29;;;;;;;37.57;14.23;;;2.90;70.30;;;;;;4999724;28;20060;-81
2023/04/05 05:09:55;;;;;;;31.43;11.43;;;2.90;70.50;;;;;;5016290;28;20057;-81
2023/04/05 05:12:22;;;;;;;30.33;11.00;;;2.90;70.60;;;;;;5015622;28;20087;-81
2023/04/05 05:14:48;;;;;;;18.90;8.07;;;2.80;70.50;;;;;;5015683;28;20052;-80
2023/04/05 05:17:13;;;;;;;22.60;8.73;;;2.80;70.60;;;;;;5032289;28;20025;-80
2023/04/05 05:19:40;;;;;;;17.00;7.20;;;2.90;70.70;;;;;;5021946;28;20041;-79
2023/04/05 05:22:05;;;;;;;13.63;6.90;;;2.80;70.70;;;;;;5011229;28;20025;-80
2023/04/05 05:24:31;;;;;;;14.50;6.33;;;2.90;70.80;;;;;;4994938;28;20034;-80
2023/04/05 05:27:02;;;;;;;14.37;6.57;;;2.90;70.90;;;;;;4995031;28;20033;-80
2023/04/05 05:29:28;;;;;;;14.80;6.53;;;2.90;70.90;;;;;;5012324;28;20084;-80
2023/04/05 05:31:54;;;;;;;14.93;6.87;;;2.90;71.00;;;;;;5012072;28;20030;-80
2023/04/05 05:34:20;;;;;;;17.17;6.87;;;2.90;71.00;;;;;;5011672;28;20025;-80
2023/04/05 05:36:46;;;;;;;12.17;6.57;;;2.90;71.00;;;;;;5013359;28;20024;-80
2023/04/05 05:39:12;;;;;;;21.00;9.17;;;2.90;71.10;;;;;;5012229;28;20470;-81
2023/04/05 05:41:37;;;;;;;16.93;8.17;;;3.00;71.20;;;;;;4996780;28;20037;-81
2023/04/05 05:44:05;;;;;;;13.07;6.73;;;3.00;71.20;;;;;;5012053;28;20116;-80
2023/04/05 05:46:31;;;;;;;13.93;6.87;;;3.00;71.20;;;;;;5037318;28;20029;-81
2023/04/05 05:48:56;;;;;;;15.37;7.80;;;3.00;71.30;;;;;;5030370;28;20036;-81
2023/04/05 05:51:22;;;;;;;25.87;9.30;;;3.00;71.30;;;;;;5023380;28;20037;-81
2023/04/05 05:53:48;;;;;;;17.80;7.80;;;3.10;71.40;;;;;;5041900;28;20029;-80
2023/04/05 05:56:13;;;;;;;14.33;7.30;;;3.10;71.40;;;;;;5023551;28;20029;-79
2023/04/05 05:58:39;;;;;;;12.33;6.53;;;3.10;71.60;;;;;;5039734;28;20025;-80
2023/04/05 06:01:06;;;;;;;13.87;7.33;;;3.10;71.60;;;;;;5047077;28;20029;-80
2023/04/05 06:03:32;;;;;;;11.40;6.23;;;3.20;71.70;;;;;;5051412;28;20040;-81
2023/04/05 06:05:59;;;;;;;12.47;6.90;;;3.20;71.70;;;;;;5051534;28;20115;-80
2023/04/05 06:08:28;;;;;;;12.60;6.27;;;3.30;71.70;;;;;;5053243;28;20043;-81
2023/04/05 06:10:54;;;;;;;12.33;5.80;;;3.30;71.70;;;;;;5051998;28;20031;-81
2023/04/05 06:13:20;;;;;;;12.17;6.20;;;3.30;71.80;;;;;;5052910;28;20041;-81
2023/04/05 06:36:17;;;;;;;9.10;3.70;;;3.60;66.80;;;;;;5059010;27;20402;-83
2023/04/05 06:38:43;;;;;;;9.83;4.43;;;3.60;67.20;;;;;;5026209;28;20033;-84
2023/04/05 06:41:09;;;;;;;9.20;4.50;;;3.60;68.10;;;;;;5026189;28;20044;-84
2023/04/05 06:43:34;;;;;;;12.87;5.50;;;3.80;69.20;;;;;;5009350;28;20362;-84
2023/04/05 06:46:00;;;;;;;12.57;6.07;;;3.70;69.80;;;;;;5022200;28;20461;-84
2023/04/05 06:48:28;;;;;;;11.97;5.97;;;3.70;70.20;;;;;;5007599;28;20030;-83
2023/04/05 06:51:01;;;;;;;12.50;5.57;;;3.80;70.60;;;;;;5006115;28;20026;-84
2023/04/05 06:53:28;;;;;;;14.88;5.40;;;3.80;70.80;;;;;;5006031;28;20038;-84
2023/04/05 06:55:55;;;;;;;10.03;5.30;;;3.90;71.10;;;;;;5005952;28;20026;-84
2023/04/05 06:58:22;;;;;;;13.97;5.20;;;4.10;71.40;;;;;;5006107;28;20355;-84
2023/04/05 07:00:48;;;;;;;9.93;5.13;;;4.10;71.40;;;;;;5016813;28;20025;-84
2023/04/05 07:03:14;;;;;;;9.97;4.57;;;4.20;71.50;;;;;;5009361;28;20059;-83
2023/04/05 07:05:40;;;;;;;10.13;5.23;;;4.30;71.50;;;;;;5025733;28;20102;-84
2023/04/05 07:08:06;;;;;;;11.93;5.23;;;4.20;71.50;;;;;;5009177;28;20070;-84
2023/04/05 07:10:31;;;;;;;12.57;5.20;;;4.40;71.50;;;;;;5025433;28;20036;-84
2023/04/05 07:12:57;;;;;;;12.57;5.57;;;4.50;71.50;;;;;;5009642;28;20030;-79
2023/04/05 07:15:22;;;;;;;10.17;5.07;;;4.60;71.50;;;;;;5025441;28;20473;-82
2023/04/05 07:17:48;;;;;;;9.40;4.53;;;4.60;71.60;;;;;;5009643;28;20526;-78
2023/04/05 07:20:15;;;;;;;11.33;4.60;;;4.70;71.50;;;;;;5009325;28;20528;-78
2023/04/05 07:22:40;;;;;;;11.67;5.50;;;4.80;71.20;;;;;;5025332;28;20105;-79
2023/04/05 07:25:08;;;;;;;9.70;4.90;;;4.90;70.70;;;;;;5008982;28;20136;-81
2023/04/05 07:27:34;;;;;;;10.30;5.27;;;5.00;70.50;;;;;;5009265;28;20036;-79
2023/04/05 07:30:00;;;;;;;10.20;4.90;;;5.00;70.10;;;;;;5025084;28;20026;-82
2023/04/05 07:32:26;;;;;;;8.90;4.67;;;5.10;70.50;;;;;;5005496;28;20045;-83
2023/04/05 07:34:51;;;;;;;10.73;4.63;;;5.20;69.70;;;;;;5023203;28;20034;-81
2023/04/05 07:37:17;;;;;;;9.37;4.67;;;5.30;69.50;;;;;;5025010;28;20033;-79
2023/04/05 07:39:43;;;;;;;10.63;5.23;;;5.30;69.20;;;;;;5009040;28;20113;-80
2023/04/05 07:42:08;;;;;;;9.20;5.03;;;5.40;68.90;;;;;;5008636;28;20074;-80
2023/04/05 07:44:34;;;;;;;8.57;4.83;;;5.40;68.70;;;;;;5025147;28;20037;-79
2023/04/05 07:46:59;;;;;;;9.73;4.70;;;5.50;68.50;;;;;;4999489;28;20037;-79
2023/04/05 07:49:26;;;;;;;11.00;4.63;;;5.60;68.20;;;;;;4995372;28;20057;-79
2023/04/05 07:51:58;;;;;;;8.17;4.13;;;5.80;68.20;;;;;;5011765;28;20474;-79
2023/04/05 07:54:24;;;;;;;7.77;3.73;;;5.70;68.10;;;;;;5011796;28;20057;-80
2023/04/05 07:56:50;;;;;;;10.30;5.00;;;5.80;67.40;;;;;;4995321;28;20473;-80
2023/04/05 07:59:16;;;;;;;11.77;4.90;;;5.80;67.40;;;;;;4995714;28;20030;-81
2023/04/05 08:01:42;;;;;;;10.93;4.70;;;5.90;67.30;;;;;;5011642;28;20022;-79
2023/04/05 08:04:07;;;;;;;10.57;4.60;;;5.90;67.80;;;;;;5011758;28;20112;-79
2023/04/05 08:06:33;;;;;;;8.23;4.73;;;6.00;67.00;;;;;;5011681;28;20059;-79
2023/04/05 08:08:59;;;;;;;8.50;4.37;;;6.00;66.70;;;;;;5011545;28;20066;-79
2023/04/05 08:11:25;;;;;;;10.27;5.37;;;6.10;67.00;;;;;;4995261;28;20030;-78
2023/04/05 08:13:52;;;;;;;11.20;4.57;;;6.10;66.30;;;;;;4995339;28;20034;-79
2023/04/05 08:16:18;;;;;;;12.20;5.17;;;6.20;66.20;;;;;;4995343;28;20083;-79
2023/04/05 08:18:44;;;;;;;9.50;4.40;;;6.30;66.10;;;;;;5011480;28;20026;-79
2023/04/05 08:21:10;;;;;;;9.50;4.47;;;6.30;66.00;;;;;;4995086;28;20026;-79
2023/04/05 08:23:36;;;;;;;11.07;4.10;;;6.40;65.80;;;;;;5012622;28;20022;-82
2023/04/05 08:26:02;;;;;;;8.57;4.00;;;6.50;65.70;;;;;;4995105;28;20419;-80
2023/04/05 08:28:27;;;;;;;8.43;4.27;;;6.60;65.50;;;;;;4995021;28;20076;-80
2023/04/05 08:30:54;;;;;;;9.00;4.30;;;6.70;65.40;;;;;;4994829;28;20117;-80
2023/04/05 08:33:20;;;;;;;7.30;3.50;;;6.70;65.20;;;;;;4991672;28;20058;-81
2023/04/05 08:35:45;;;;;;;7.93;4.33;;;6.80;64.70;;;;;;4992574;28;20073;-80
2023/04/05 08:38:11;;;;;;;8.80;4.40;;;6.80;64.50;;;;;;4959452;28;20031;-81
2023/04/05 08:40:46;;;;;;;8.27;3.93;;;6.90;63.90;;;;;;4991529;28;20023;-81
2023/04/05 08:43:24;;;;;;;7.73;3.50;;;7.00;64.00;;;;;;5010869;28;20018;-80
2023/04/05 08:45:51;;;;;;;9.20;4.53;;;7.10;64.10;;;;;;5010934;28;20068;-79
2023/04/05 08:48:18;;;;;;;8.83;3.20;;;7.10;63.90;;;;;;4995690;28;20030;-80
2023/04/05 08:50:51;;;;;;;8.43;3.60;;;7.20;63.80;;;;;;5012072;28;20067;-80
2023/04/05 08:53:18;;;;;;;10.93;3.92;;;7.30;63.70;;;;;;5011735;28;20022;-80
2023/04/05 08:55:50;;;;;;;6.90;3.40;;;7.30;63.30;;;;;;5011996;28;20033;-80
2023/04/05 08:58:16;;;;;;;8.63;3.93;;;7.40;62.90;;;;;;5009232;28;20029;-81
2023/04/05 09:00:42;;;;;;;7.83;4.17;;;7.60;62.50;;;;;;5012002;28;20026;-81
2023/04/05 09:03:15;;;;;;;8.30;3.90;;;7.60;62.50;;;;;;4994045;28;20499;-82
2023/04/05 09:05:48;;;;;;;8.00;3.50;;;7.70;62.30;;;;;;5011369;28;20022;-82
2023/04/05 09:08:15;;;;;;;10.48;4.78;;;7.80;61.30;;;;;;5010033;28;20026;-81
2023/04/05 09:10:41;;;;;;;8.40;4.77;;;7.90;60.70;;;;;;4993212;28;20124;-80
2023/04/05 09:13:07;;;;;;;8.97;4.10;;;7.90;60.50;;;;;;4993234;28;20179;-78
2023/04/05 09:15:35;;;;;;;9.20;3.90;;;8.00;60.50;;;;;;4993244;28;20041;-79
2023/04/05 09:18:01;;;;;;;8.20;4.03;;;8.10;59.70;;;;;;5009642;28;20022;-79
2023/04/05 09:20:26;;;;;;;7.27;3.47;;;8.20;59.30;;;;;;4993562;28;20481;-79
2023/04/05 09:22:55;;;;;;;9.50;4.10;;;8.30;59.20;;;;;;5009794;28;20497;-79
2023/04/05 09:25:38;;;;;;;9.30;3.93;;;8.30;58.70;;;;;;5011261;28;20099;-78
2023/04/05 09:28:11;;;;;;;8.70;3.93;;;8.40;59.10;;;;;;4992622;28;20485;-80
2023/04/05 09:30:37;;;;;;;7.87;3.70;;;8.50;58.60;;;;;;4993542;28;20041;-79
2023/04/05 09:33:06;;;;;;;6.27;3.17;;;8.60;58.60;;;;;;4989913;28;20085;-80
2023/04/05 09:35:32;;;;;;;6.80;3.40;;;8.70;58.40;;;;;;5009399;28;20186;-80
2023/04/05 09:38:00;;;;;;;5.97;2.90;;;8.80;58.10;;;;;;4994000;28;20450;-81
2023/04/05 09:40:46;;;;;;;8.70;3.90;;;8.90;57.90;;;;;;5010985;28;20026;-81
2023/04/05 09:43:13;;;;;;;8.00;3.07;;;8.90;57.40;;;;;;5011043;28;20488;-80
2023/04/05 09:45:41;;;;;;;7.57;3.67;;;9.00;57.20;;;;;;4993858;28;20034;-81
2023/04/05 09:48:08;;;;;;;6.17;3.33;;;9.10;57.30;;;;;;5010253;28;20030;-81
2023/04/05 09:50:34;;;;;;;9.73;4.03;;;9.20;57.10;;;;;;4990182;28;20046;-81
2023/04/05 09:53:14;;;;;;;7.73;3.90;;;9.30;56.30;;;;;;5004889;28;20058;-80
2023/04/05 09:55:41;;;;;;;8.27;3.80;;;9.30;55.80;;;;;;4994065;28;20041;-82
2023/04/05 09:58:20;;;;;;;7.10;3.97;;;9.40;55.30;;;;;;5009911;28;20026;-80
2023/04/05 10:00:53;;;;;;;8.43;3.77;;;9.50;55.10;;;;;;5010072;28;20026;-80
2023/04/05 10:03:19;;;;;;;8.87;3.70;;;9.50;54.80;;;;;;5009243;28;20113;-80
2023/04/05 10:05:46;;;;;;;8.60;4.10;;;9.60;54.70;;;;;;5010473;28;20021;-81
2023/04/05 10:08:15;;;;;;;9.57;4.33;;;9.70;54.70;;;;;;5010062;28;20034;-81
2023/04/05 10:10:46;;;;;;;8.53;3.53;;;9.80;54.10;;;;;;4993231;28;20034;-80
2023/04/05 10:13:13;;;;;;;12.13;3.50;;;10.00;54.00;;;;;;4993441;28;20076;-79
2023/04/05 10:15:44;;;;;;;8.87;3.50;;;10.30;54.00;;;;;;4993305;28;20061;-82
2023/04/05 10:18:25;;;;;;;7.73;3.40;;;10.70;53.60;;;;;;5009766;28;20075;-81
2023/04/05 10:20:53;;;;;;;7.83;3.13;;;11.20;53.60;;;;;;5009278;28;20030;-81
2023/04/05 10:23:22;;;;;;;7.72;2.90;;;11.70;54.00;;;;;;5009511;28;20065;-79
2023/04/05 10:25:50;;;;;;;4.93;2.65;;;12.20;53.90;;;;;;5010852;28;20037;-78
2023/04/05 10:28:33;;;;;;;4.38;1.75;;;12.90;53.60;;;;;;5009384;28;20026;-79
2023/04/05 10:31:13;;;;;;;5.32;2.25;;;13.80;52.80;;;;;;5009406;28;20385;-80
2023/04/05 10:33:44;;;;;;;4.03;1.77;;;14.60;52.00;;;;;;5009173;28;20040;-79
2023/04/05 10:36:30;;;;;;;5.70;2.20;;;15.40;52.00;;;;;;5009073;28;20053;-80
2023/04/05 10:39:12;;;;;;;4.65;2.20;;;16.20;50.00;;;;;;5009625;28;20500;-79
2023/04/05 10:41:51;;;;;;;6.80;2.05;;;17.00;49.60;;;;;;5009248;28;20489;-81
2023/04/05 10:44:18;;;;;;;3.95;2.10;;;17.80;49.00;;;;;;5009142;28;20048;-79
2023/04/05 10:46:45;;;;;;;4.57;1.85;;;18.60;49.90;;;;;;5009204;28;20030;-80
2023/04/05 10:49:24;;;;;;;4.18;1.30;;;19.30;48.20;;;;;;5009257;28;20366;-81
2023/04/05 10:51:51;;;;;;;3.63;1.88;;;20.10;47.00;;;;;;5008880;28;20046;-80
2023/04/05 10:54:19;;;;;;;3.13;1.63;;;20.80;45.40;;;;;;5009246;28;20029;-79
2023/04/05 10:56:45;;;;;;;4.40;1.42;;;21.20;43.50;;;;;;5010407;28;20040;-81
2023/04/05 10:59:12;;;;;;;5.93;1.77;;;21.80;42.80;;;;;;4992987;28;20073;-80
2023/04/05 11:01:40;;;;;;;3.28;1.30;;;22.30;39.90;;;;;;5009216;28;20482;-80
2023/04/05 11:04:14;;;;;;;4.03;1.80;;;22.60;39.40;;;;;;5010370;28;20389;-80
2023/04/05 11:06:41;;;;;;;5.13;1.80;;;23.10;37.30;;;;;;5008967;28;20026;-80
2023/04/05 11:09:21;;;;;;;5.22;1.77;;;23.40;37.30;;;;;;5009574;28;20018;-80
2023/04/05 11:11:50;;;;;;;4.10;1.75;;;23.70;36.20;;;;;;5010314;28;20028;-80
2023/04/05 11:14:26;;;;;;;3.28;1.60;;;24.10;36.10;;;;;;5008990;28;20018;-79
2023/04/05 11:16:55;;;;;;;3.75;1.58;;;24.50;34.60;;;;;;5008971;28;20128;-79
2023/04/05 11:19:47;;;;;;;6.80;1.80;;;24.70;32.90;;;;;;5010665;28;20022;-80
2023/04/05 11:22:23;;;;;;;4.32;1.88;;;24.80;31.20;;;;;;5012587;28;20041;-79
2023/04/05 11:24:55;;;;;;;5.05;1.98;;;24.80;32.10;;;;;;5012586;28;20428;-80
2023/04/05 11:27:33;;;;;;;4.32;1.85;;;24.70;31.70;;;;;;5012529;28;20022;-79
2023/04/05 11:29:59;;;;;;;4.65;2.08;;;24.80;30.70;;;;;;5012424;28;20037;-80
2023/04/05 11:32:42;;;;;;;4.72;2.05;;;24.90;30.60;;;;;;4995977;28;20499;-80
2023/04/05 11:35:22;;;;;;;4.30;1.70;;;25.00;30.10;;;;;;4996154;28;20046;-79
2023/04/05 11:37:59;;;;;;;4.05;1.42;;;25.10;30.40;;;;;;5012097;28;20022;-79
2023/04/05 11:40:30;;;;;;;3.72;1.63;;;25.20;31.30;;;;;;5012123;28;20030;-81
2023/04/05 11:43:07;;;;;;;4.68;1.88;;;25.40;30.00;;;;;;5013059;28;20469;-81
2023/04/05 11:45:34;;;;;;;5.35;1.90;;;25.50;29.80;;;;;;5011847;28;20124;-81
2023/04/05 11:48:07;;;;;;;4.45;1.98;;;25.50;30.00;;;;;;5011710;28;20029;-78
2023/04/05 11:50:34;;;;;;;4.45;1.83;;;25.60;29.80;;;;;;5013365;28;20389;-80
2023/04/05 11:53:08;;;;;;;4.40;1.73;;;25.70;29.40;;;;;;5016531;28;20018;-79
2023/04/05 11:55:34;;;;;;;3.35;1.63;;;25.90;29.00;;;;;;5020315;28;20037;-81
2023/04/05 11:58:00;;;;;;;5.95;1.88;;;25.90;29.20;;;;;;5018256;28;20030;-82
2023/04/05 12:00:26;;;;;;;4.70;1.90;;;26.00;28.90;;;;;;4997016;28;20038;-81
2023/04/05 12:02:55;;;;;;;2.60;1.17;;;26.00;29.30;;;;;;4997719;28;20106;-82
2023/04/05 12:05:21;;;;;;;5.13;1.88;;;26.10;29.10;;;;;;5014206;28;20034;-81
2023/04/05 12:07:52;;;;;;;3.28;1.63;;;26.40;28.90;;;;;;5013672;28;20022;-80
2023/04/05 12:10:17;;;;;;;3.90;1.95;;;26.40;28.80;;;;;;5014141;28;20419;-81
2023/04/05 12:12:46;;;;;;;4.72;2.42;;;26.50;28.60;;;;;;4995899;28;20075;-81
2023/04/05 12:15:18;;;;;;;4.47;1.75;;;26.50;28.50;;;;;;5013097;28;20473;-81
2023/04/05 12:17:49;;;;;;;4.90;2.20;;;26.60;28.70;;;;;;5011548;28;20055;-81
2023/04/05 12:20:21;;;;;;;3.53;1.83;;;26.80;28.20;;;;;;5011882;28;20041;-81
2023/04/05 12:22:48;;;;;;;4.93;2.13;;;26.80;28.10;;;;;;5011725;28;20049;-80
2023/04/05 12:25:15;;;;;;;8.05;4.40;;;26.70;28.30;;;;;;5012956;28;20030;-83
2023/04/05 12:27:41;;;;;;;6.45;2.55;;;26.80;28.60;;;;;;5011574;28;20033;-81
2023/04/05 12:30:19;;;;;;;3.15;1.83;;;26.90;28.50;;;;;;5011529;28;20109;-79
2023/04/05 12:32:52;;;;;;;3.53;1.73;;;27.20;28.50;;;;;;5012578;28;20068;-80
2023/04/05 12:35:20;;;;;;;;;;;27.40;28.30;;;;;;5012104;28;20406;-79
2023/04/05 12:37:49;;;;;;;3.28;1.77;;;27.60;28.00;;;;;;5011374;28;19905;-81
2023/04/05 12:40:20;;;;;;;3.72;1.92;;;27.60;27.90;;;;;;5011762;28;20030;-78
2023/04/05 12:42:46;;;;;;;4.32;1.58;;;27.60;27.70;;;;;;5012550;28;20359;-79
2023/04/05 12:45:12;;;;;;;5.10;2.17;;;27.60;27.60;;;;;;5012230;28;20030;-79
2023/04/05 12:47:58;;;;;;;3.63;1.60;;;27.60;27.50;;;;;;5012611;28;20026;-79
2023/04/05 12:50:33;;;;;;;4.28;2.38;;;27.60;27.50;;;;;;5012083;28;20034;-81
2023/04/05 12:53:03;;;;;;;4.53;1.90;;;27.60;27.50;;;;;;5012118;28;20051;-80
2023/04/05 12:55:29;;;;;;;5.32;2.55;;;27.40;27.70;;;;;;5011504;28;20029;-82
2023/04/05 12:58:00;;;;;;;3.53;1.80;;;27.50;27.30;;;;;;5011661;28;20075;-82
2023/04/05 13:00:28;;;;;;;7.40;2.20;;;27.60;27.30;;;;;;4994545;28;20505;-83
2023/04/05 13:02:55;;;;;;;4.28;2.30;;;27.60;27.10;;;;;;5010929;28;20098;-83
2023/04/05 13:05:23;;;;;;;5.90;2.30;;;27.50;27.10;;;;;;4994412;28;20343;-84
2023/04/05 13:07:49;;;;;;;5.50;2.08;;;27.50;27.20;;;;;;5010682;28;20026;-83
2023/04/05 13:10:16;;;;;;;5.13;2.15;;;27.50;27.30;;;;;;5012031;28;20058;-84
2023/04/05 13:12:42;;;;;;;3.35;1.88;;;27.60;27.20;;;;;;5010578;28;20044;-84
2023/04/05 13:15:08;;;;;;;4.93;2.45;;;27.70;27.40;;;;;;5010876;28;20036;-83
2023/04/05 13:17:34;;;;;;;4.32;1.92;;;27.80;27.40;;;;;;5010441;28;20386;-83
2023/04/05 13:19:59;;;;;;;4.35;1.65;;;28.10;27.30;;;;;;5005635;28;20068;-84
2023/04/05 13:22:25;;;;;;;8.23;2.30;;;28.30;27.10;;;;;;5010783;28;20061;-84